createdAt,value
2019-02-25T00:01:38.941Z,7.00
2019-02-25T00:04:09.398Z,6.60
2019-02-25T00:06:39.769Z,6.80
2019-02-25T00:09:10.099Z,7.00
2019-02-25T00:11:40.459Z,6.90
2019-02-25T00:14:11.044Z,7.00
2019-02-25T00:16:41.415Z,6.90
2019-02-25T00:19:11.710Z,6.80
2019-02-25T00:21:42.157Z,6.70
2019-02-25T00:24:12.543Z,6.60
2019-02-25T00:26:42.862Z,6.60
2019-02-25T00:29:13.220Z,6.60
2019-02-25T00:31:43.608Z,6.60
2019-02-25T00:34:14.679Z,6.60
2019-02-25T00:36:45.971Z,6.60
2019-02-25T00:39:17.068Z,6.70
2019-02-25T00:41:47.456Z,6.70
2019-02-25T00:44:17.775Z,6.70
2019-02-25T00:46:48.905Z,6.70
2019-02-25T00:49:19.285Z,6.60
2019-02-25T00:51:49.656Z,6.50
2019-02-25T00:54:20.000Z,6.60
2019-02-25T00:56:50.340Z,6.60
2019-02-25T00:59:20.953Z,6.60
2019-02-25T01:01:51.276Z,6.50
2019-02-25T01:04:21.766Z,6.60
2019-02-25T01:06:52.679Z,6.70
2019-02-25T01:09:23.618Z,6.70
2019-02-25T01:11:53.989Z,6.60
2019-02-25T01:14:24.312Z,6.60
2019-02-25T01:16:55.075Z,6.50
2019-02-25T01:19:26.023Z,6.40
2019-02-25T01:21:56.394Z,6.40
2019-02-25T01:24:27.284Z,6.40
2019-02-25T01:26:57.804Z,6.40
2019-02-25T01:29:28.183Z,6.30
2019-02-25T01:31:58.527Z,6.20
2019-02-25T01:34:29.170Z,6.30
2019-02-25T01:36:59.591Z,6.40
2019-02-25T01:39:30.385Z,6.40
2019-02-25T01:42:01.553Z,6.30
2019-02-25T01:44:32.204Z,6.30
2019-02-25T01:47:02.521Z,6.30
2019-02-25T01:49:32.854Z,6.30
2019-02-25T01:52:03.718Z,6.30
2019-02-25T01:54:34.043Z,6.30
2019-02-25T01:57:04.398Z,6.30
2019-02-25T01:59:35.110Z,6.30
2019-02-25T02:02:05.425Z,6.40
2019-02-25T02:04:35.784Z,6.40
2019-02-25T02:07:06.159Z,6.40
2019-02-25T02:09:36.772Z,6.40
2019-02-25T02:12:07.123Z,6.30
2019-02-25T02:14:37.445Z,6.10
2019-02-25T02:17:07.797Z,6.00
2019-02-25T02:19:38.797Z,6.00
2019-02-25T02:22:09.467Z,6.00
2019-02-25T02:24:39.835Z,6.00
2019-02-25T02:27:10.588Z,6.00
2019-02-25T02:29:41.503Z,6.00
2019-02-25T02:32:11.846Z,6.00
2019-02-25T02:34:42.224Z,5.90
2019-02-25T02:37:12.863Z,5.80
2019-02-25T02:39:43.237Z,5.70
2019-02-25T02:42:23.514Z,5.60
2019-02-25T02:45:44.313Z,5.50
2019-02-25T02:48:41.615Z,5.40
2019-02-25T02:51:12.759Z,5.40
2019-02-25T02:53:43.128Z,5.30
2019-02-25T02:56:13.769Z,5.30
2019-02-25T02:58:44.450Z,5.40
2019-02-25T03:01:14.801Z,5.40
2019-02-25T03:03:45.426Z,5.50
2019-02-25T03:06:15.832Z,5.50
2019-02-25T03:08:46.433Z,5.60
2019-02-25T03:11:23.034Z,5.70
2019-02-25T03:13:53.679Z,5.70
2019-02-25T03:16:23.942Z,5.70
2019-02-25T03:18:54.307Z,5.60
2019-02-25T03:21:24.623Z,5.60
2019-02-25T03:23:55.311Z,5.60
2019-02-25T03:26:27.720Z,5.60
2019-02-25T03:28:58.039Z,5.50
2019-02-25T03:31:28.375Z,5.40
2019-02-25T03:34:18.101Z,5.40
2019-02-25T03:36:48.450Z,5.40
2019-02-25T03:39:19.486Z,5.20
2019-02-25T03:41:50.180Z,5.10
2019-02-25T03:44:21.043Z,5.00
2019-02-25T03:46:51.427Z,4.90
2019-02-25T03:49:22.771Z,4.80
2019-02-25T03:51:53.979Z,4.70
2019-02-25T03:54:24.383Z,4.80
2019-02-25T03:56:57.477Z,4.80
2019-02-25T03:59:27.872Z,4.90
2019-02-25T04:01:58.526Z,4.90
2019-02-25T04:04:28.913Z,4.90
2019-02-25T04:06:59.509Z,4.90
2019-02-25T04:09:30.134Z,4.90
2019-02-25T04:12:01.142Z,5.00
2019-02-25T04:14:49.757Z,5.10
2019-02-25T04:17:20.085Z,5.10
2019-02-25T04:19:50.581Z,5.20
2019-02-25T04:22:20.979Z,5.20
2019-02-25T04:24:51.518Z,5.30
2019-02-25T04:27:22.145Z,5.20
2019-02-25T04:29:52.871Z,5.10
2019-02-25T04:32:23.516Z,5.00
2019-02-25T04:34:53.983Z,5.00
2019-02-25T04:37:24.679Z,4.90
2019-02-25T04:39:55.636Z,4.70
2019-02-25T04:42:25.995Z,4.70
2019-02-25T04:44:56.631Z,4.80
2019-02-25T04:47:27.351Z,4.80
2019-02-25T04:50:17.068Z,4.80
2019-02-25T04:52:49.265Z,4.80
2019-02-25T04:55:19.594Z,4.80
2019-02-25T04:57:50.569Z,4.90
2019-02-25T05:00:20.961Z,4.90
2019-02-25T05:02:51.316Z,5.00
2019-02-25T05:05:21.642Z,5.00
2019-02-25T05:07:52.171Z,5.00
2019-02-25T05:10:22.894Z,5.10
2019-02-25T05:12:58.952Z,5.00
2019-02-25T05:15:29.626Z,5.00
2019-02-25T05:17:59.959Z,5.00
2019-02-25T05:20:30.998Z,4.90
2019-02-25T05:23:01.364Z,4.90
2019-02-25T05:25:31.675Z,4.80
2019-02-25T05:28:02.121Z,4.80
2019-02-25T05:30:32.425Z,4.70
2019-02-25T05:33:03.052Z,4.60
2019-02-25T05:35:33.412Z,4.60
2019-02-25T05:38:03.933Z,4.60
2019-02-25T05:40:34.279Z,4.60
2019-02-25T05:43:04.704Z,4.60
2019-02-25T05:45:35.441Z,4.70
2019-02-25T05:48:06.180Z,4.70
2019-02-25T05:50:36.483Z,4.70
2019-02-25T05:53:07.126Z,4.60
2019-02-25T05:55:37.709Z,4.60
2019-02-25T05:58:08.312Z,4.70
2019-02-25T06:00:39.014Z,4.70
2019-02-25T06:03:09.396Z,4.70
2019-02-25T06:05:39.796Z,4.70
2019-02-25T06:08:10.431Z,4.70
2019-02-25T06:10:40.817Z,4.70
2019-02-25T06:13:11.554Z,4.60
2019-02-25T06:15:41.946Z,4.70
2019-02-25T06:18:12.868Z,4.70
2019-02-25T06:20:43.506Z,4.80
2019-02-25T06:23:13.895Z,4.80
2019-02-25T06:25:44.551Z,4.80
2019-02-25T06:28:14.944Z,4.70
2019-02-25T06:30:45.273Z,4.70
2019-02-25T06:33:15.705Z,4.80
2019-02-25T06:35:46.055Z,4.70
2019-02-25T06:38:16.474Z,4.70
2019-02-25T06:40:47.088Z,4.70
2019-02-25T06:43:17.890Z,4.80
2019-02-25T06:45:48.750Z,4.90
2019-02-25T06:48:19.484Z,4.90
2019-02-25T06:50:49.844Z,4.90
2019-02-25T06:53:20.239Z,4.90
2019-02-25T06:55:51.074Z,4.90
2019-02-25T06:58:23.072Z,5.00
2019-02-25T07:00:53.995Z,5.00
2019-02-25T07:03:24.593Z,5.00
2019-02-25T07:06:23.287Z,5.00
2019-02-25T07:09:15.617Z,5.00
2019-02-25T07:12:14.159Z,5.10
2019-02-25T07:14:53.781Z,5.10
2019-02-25T07:17:52.219Z,5.10
2019-02-25T07:20:45.782Z,5.00
2019-02-25T07:23:35.108Z,5.00
2019-02-25T07:26:42.546Z,5.00
2019-02-25T07:29:30.367Z,5.10
2019-02-25T07:32:30.179Z,5.10
2019-02-25T07:35:14.973Z,5.10
2019-02-25T07:38:12.402Z,5.20
2019-02-25T07:41:07.947Z,5.20
2019-02-25T07:44:03.378Z,5.30
2019-02-25T07:46:51.591Z,5.40
2019-02-25T07:49:44.086Z,5.40
2019-02-25T07:52:32.130Z,5.60
2019-02-25T07:55:13.376Z,5.70
2019-02-25T07:57:48.632Z,5.80
2019-02-25T08:00:24.842Z,6.00
2019-02-25T08:03:20.495Z,6.00
2019-02-25T08:06:14.643Z,6.00
2019-02-25T08:09:00.350Z,6.20
2019-02-25T08:11:36.773Z,6.30
2019-02-25T08:14:19.018Z,6.40
2019-02-25T08:17:14.034Z,6.50
2019-02-25T08:20:31.691Z,6.70
2019-02-25T08:23:24.424Z,6.90
2019-02-25T08:26:12.674Z,6.90
2019-02-25T08:28:59.135Z,7.00
2019-02-25T08:31:43.157Z,7.10
2019-02-25T08:34:41.570Z,7.20
2019-02-25T08:38:05.714Z,7.40
2019-02-25T08:41:12.943Z,7.10
2019-02-25T08:44:30.095Z,7.50
2019-02-25T08:47:24.002Z,7.50
2019-02-25T08:49:57.341Z,7.70
2019-02-25T08:52:27.679Z,7.90
2019-02-25T08:54:58.619Z,8.00
2019-02-25T08:57:29.285Z,8.10
2019-02-25T08:59:59.896Z,8.40
2019-02-25T09:02:30.787Z,8.60
2019-02-25T09:05:01.179Z,8.60
2019-02-25T09:07:32.592Z,8.80
2019-02-25T09:10:02.960Z,9.00
2019-02-25T09:12:36.431Z,9.10
2019-02-25T09:15:08.296Z,9.30
2019-02-25T09:17:45.738Z,9.50
2019-02-25T09:20:18.148Z,9.60
2019-02-25T09:22:48.547Z,9.50
2019-02-25T09:25:18.964Z,9.80
2019-02-25T09:27:55.659Z,10.00
2019-02-25T09:30:25.995Z,10.20
2019-02-25T09:32:56.978Z,10.50
2019-02-25T09:35:27.357Z,10.90
2019-02-25T09:37:57.713Z,11.30
2019-02-25T09:40:28.370Z,11.50
2019-02-25T09:42:58.725Z,11.80
2019-02-25T09:45:29.670Z,12.00
2019-02-25T09:48:00.027Z,12.20
2019-02-25T09:50:30.854Z,12.20
2019-02-25T09:53:01.223Z,12.20
2019-02-25T09:55:31.691Z,12.50
2019-02-25T09:58:02.658Z,12.70
2019-02-25T10:00:33.015Z,12.80
2019-02-25T10:03:03.675Z,13.00
2019-02-25T10:05:34.659Z,13.20
2019-02-25T10:08:04.976Z,13.10
2019-02-25T10:10:42.214Z,13.20
2019-02-25T10:13:13.094Z,13.40
2019-02-25T10:15:43.492Z,13.40
2019-02-25T10:18:24.147Z,13.70
2019-02-25T10:20:54.572Z,13.40
2019-02-25T10:23:25.010Z,13.80
2019-02-25T10:25:56.396Z,14.30
2019-02-25T10:28:26.986Z,14.60
2019-02-25T10:30:57.795Z,15.20
2019-02-25T10:33:28.246Z,15.50
2019-02-25T10:35:58.568Z,15.70
2019-02-25T10:38:31.554Z,15.90
2019-02-25T10:41:01.957Z,16.10
2019-02-25T10:43:34.587Z,15.80
2019-02-25T10:46:06.982Z,16.10
2019-02-25T10:48:37.496Z,16.50
2019-02-25T10:51:09.325Z,16.90
2019-02-25T10:53:39.995Z,16.90
2019-02-25T10:56:54.218Z,16.50
2019-02-25T10:59:25.137Z,16.10
2019-02-25T11:01:55.982Z,16.90
2019-02-25T11:04:26.444Z,17.30
2019-02-25T11:06:56.770Z,17.60
2019-02-25T11:09:33.664Z,17.20
2019-02-25T11:12:04.014Z,16.70
2019-02-25T11:14:36.004Z,17.00
2019-02-25T11:17:07.111Z,17.30
2019-02-25T11:19:37.930Z,17.60
2019-02-25T11:22:10.502Z,17.70
2019-02-25T11:24:41.945Z,17.80
2019-02-25T11:27:12.745Z,17.90
2019-02-25T11:29:44.128Z,17.70
2019-02-25T11:32:16.880Z,17.70
2019-02-25T11:34:47.927Z,17.60
2019-02-25T11:37:19.695Z,17.40
2019-02-25T11:39:52.590Z,17.30
2019-02-25T11:42:24.102Z,17.30
2019-02-25T11:44:56.493Z,17.10
2019-02-25T11:47:28.775Z,17.10
2019-02-25T11:49:59.179Z,17.10
2019-02-25T11:52:29.900Z,17.10
2019-02-25T11:55:00.600Z,17.00
2019-02-25T11:57:31.224Z,17.00
2019-02-25T12:00:01.953Z,17.20
2019-02-25T12:02:32.680Z,17.10
2019-02-25T12:05:03.078Z,16.90
2019-02-25T12:07:33.571Z,17.00
2019-02-25T12:10:04.267Z,17.20
2019-02-25T12:12:34.909Z,17.10
2019-02-25T12:15:07.955Z,17.10
2019-02-25T12:17:38.564Z,17.20
2019-02-25T12:20:10.900Z,17.20
2019-02-25T12:22:41.649Z,17.30
2019-02-25T12:25:13.659Z,17.50
2019-02-25T12:27:44.001Z,17.20
2019-02-25T12:30:19.141Z,17.10
2019-02-25T12:32:49.759Z,16.70
2019-02-25T12:35:20.159Z,17.00
2019-02-25T12:37:50.933Z,17.20
2019-02-25T12:40:22.179Z,17.20
2019-02-25T12:42:52.810Z,17.20
2019-02-25T12:45:23.412Z,17.10
2019-02-25T12:47:54.269Z,17.30
2019-02-25T12:50:25.186Z,17.30
2019-02-25T12:52:55.529Z,17.20
2019-02-25T12:55:26.156Z,17.20
2019-02-25T12:57:57.066Z,17.20
2019-02-25T13:00:27.964Z,17.10
2019-02-25T13:02:58.666Z,17.40
2019-02-25T13:05:29.104Z,17.50
2019-02-25T13:07:59.767Z,17.30
2019-02-25T13:10:30.129Z,17.30
2019-02-25T13:13:01.093Z,17.40
2019-02-25T13:15:33.492Z,17.40
2019-02-25T13:18:03.866Z,17.60
2019-02-25T13:20:34.356Z,17.70
2019-02-25T13:23:04.925Z,17.70
2019-02-25T13:25:35.336Z,17.80
2019-02-25T13:28:11.678Z,17.90
2019-02-25T13:30:42.299Z,18.00
2019-02-25T13:33:13.320Z,18.00
2019-02-25T13:35:44.197Z,18.00
2019-02-25T13:38:14.948Z,17.80
2019-02-25T13:40:45.785Z,17.90
2019-02-25T13:43:16.154Z,17.80
2019-02-25T13:45:46.598Z,17.90
2019-02-25T13:48:18.078Z,18.00
2019-02-25T13:50:49.448Z,18.10
2019-02-25T13:53:20.481Z,18.00
2019-02-25T13:55:50.823Z,17.90
2019-02-25T13:58:28.662Z,18.00
2019-02-25T14:00:59.031Z,18.30
2019-02-25T14:03:29.914Z,18.30
2019-02-25T14:06:01.842Z,18.20
2019-02-25T14:08:32.388Z,18.20
2019-02-25T14:11:02.753Z,18.30
2019-02-25T14:13:33.166Z,18.30
2019-02-25T14:16:03.497Z,18.40
2019-02-25T14:18:34.174Z,18.30
2019-02-25T14:21:05.069Z,18.40
2019-02-25T14:23:35.623Z,18.30
2019-02-25T14:26:05.992Z,18.30
2019-02-25T14:28:36.728Z,18.20
2019-02-25T14:31:07.375Z,18.40
2019-02-25T14:33:37.979Z,18.50
2019-02-25T14:36:10.685Z,18.60
2019-02-25T14:38:40.828Z,18.90
2019-02-25T14:41:13.596Z,18.90
2019-02-25T14:43:47.007Z,18.90
2019-02-25T14:46:26.713Z,18.90
2019-02-25T14:48:57.127Z,19.10
2019-02-25T14:51:29.769Z,19.40
2019-02-25T14:54:00.360Z,19.70
2019-02-25T14:56:31.574Z,19.80
2019-02-25T14:59:05.551Z,19.60
2019-02-25T15:01:34.562Z,19.50
2019-02-25T15:04:06.459Z,19.60
2019-02-25T15:06:39.792Z,19.60
2019-02-25T15:09:12.075Z,19.50
2019-02-25T15:11:42.825Z,19.40
2019-02-25T15:14:15.075Z,19.50
2019-02-25T15:16:45.937Z,19.80
2019-02-25T15:19:16.444Z,19.70
2019-02-25T15:21:54.188Z,19.40
2019-02-25T15:24:24.863Z,19.00
2019-02-25T15:26:57.504Z,19.20
2019-02-25T15:29:28.124Z,19.20
2019-02-25T15:32:01.787Z,19.00
2019-02-25T15:34:32.114Z,19.00
2019-02-25T15:37:03.075Z,18.90
2019-02-25T15:39:35.320Z,18.70
2019-02-25T15:42:07.293Z,18.80
2019-02-25T15:44:40.353Z,18.80
2019-02-25T15:47:11.153Z,18.70
2019-02-25T15:49:42.881Z,18.60
2019-02-25T15:52:16.550Z,18.60
2019-02-25T15:54:45.984Z,18.30
2019-02-25T15:57:16.621Z,18.40
2019-02-25T15:59:47.046Z,18.50
2019-02-25T16:02:17.820Z,18.40
2019-02-25T16:04:48.825Z,18.30
2019-02-25T16:07:19.132Z,18.30
2019-02-25T16:09:49.447Z,18.10
2019-02-25T16:12:23.214Z,18.00
2019-02-25T16:14:53.223Z,18.00
2019-02-25T16:17:26.009Z,17.90
2019-02-25T16:19:56.458Z,18.00
2019-02-25T16:22:28.245Z,17.90
2019-02-25T16:25:00.701Z,17.80
2019-02-25T16:27:31.649Z,17.80
2019-02-25T16:30:03.583Z,17.70
2019-02-25T16:32:35.161Z,17.60
2019-02-25T16:35:07.380Z,17.40
2019-02-25T16:37:38.079Z,17.30
2019-02-25T16:40:11.090Z,17.10
2019-02-25T16:42:43.794Z,16.90
2019-02-25T16:45:16.935Z,16.70
2019-02-25T16:47:47.330Z,16.50
2019-02-25T16:50:18.774Z,16.40
2019-02-25T16:52:50.074Z,16.30
2019-02-25T16:55:22.816Z,16.20
2019-02-25T16:57:53.498Z,16.00
2019-02-25T17:00:25.160Z,15.80
2019-02-25T17:02:59.255Z,15.70
2019-02-25T17:05:28.548Z,15.60
2019-02-25T17:08:01.070Z,15.50
2019-02-25T17:10:33.776Z,15.40
2019-02-25T17:13:05.848Z,15.30
2019-02-25T17:15:37.171Z,15.00
2019-02-25T17:18:07.941Z,14.90
2019-02-25T17:20:38.326Z,14.70
2019-02-25T17:23:10.084Z,14.60
2019-02-25T17:25:43.514Z,14.60
2019-02-25T17:28:17.470Z,14.50
2019-02-25T17:30:47.394Z,14.40
2019-02-25T17:33:18.887Z,14.30
2019-02-25T17:35:50.428Z,14.20
2019-02-25T17:38:23.024Z,14.20
2019-02-25T17:40:54.878Z,14.10
2019-02-25T17:43:27.028Z,13.90
2019-02-25T17:45:58.264Z,13.80
2019-02-25T17:48:30.010Z,13.70
2019-02-25T17:51:01.670Z,13.60
2019-02-25T17:53:33.067Z,13.50
2019-02-25T17:56:03.453Z,13.50
2019-02-25T17:58:35.849Z,13.50
2019-02-25T18:01:07.240Z,13.40
2019-02-25T18:03:39.479Z,13.30
2019-02-25T18:06:10.181Z,13.10
2019-02-25T18:08:40.547Z,13.00
2019-02-25T18:11:13.441Z,12.90
2019-02-25T18:13:44.058Z,12.90
2019-02-25T18:16:16.649Z,12.80
2019-02-25T18:18:48.774Z,12.70
2019-02-25T18:21:19.878Z,12.70
2019-02-25T18:23:52.068Z,12.70
2019-02-25T18:26:22.994Z,12.70
2019-02-25T18:28:53.571Z,12.60
2019-02-25T18:31:25.652Z,12.40
2019-02-25T18:33:56.572Z,12.30
2019-02-25T18:36:29.377Z,12.30
2019-02-25T18:38:59.557Z,12.20
2019-02-25T18:41:32.475Z,12.10
2019-02-25T18:44:02.551Z,12.10
2019-02-25T18:46:33.231Z,12.10
2019-02-25T18:49:09.485Z,12.20
2019-02-25T18:51:39.876Z,12.10
2019-02-25T18:54:10.792Z,12.10
2019-02-25T18:56:42.505Z,12.10
2019-02-25T18:59:15.617Z,12.00
2019-02-25T19:01:47.155Z,11.90
2019-02-25T19:04:19.668Z,11.70
2019-02-25T19:06:49.781Z,11.50
2019-02-25T19:09:23.187Z,11.50
2019-02-25T19:11:56.196Z,11.50
2019-02-25T19:14:28.854Z,11.50
2019-02-25T19:17:02.089Z,11.60
2019-02-25T19:19:34.171Z,11.60
2019-02-25T19:22:06.063Z,11.50
2019-02-25T19:24:41.642Z,11.40
2019-02-25T19:27:10.952Z,11.30
2019-02-25T19:29:45.116Z,11.00
2019-02-25T19:32:14.933Z,10.80
2019-02-25T19:34:45.696Z,10.90
2019-02-25T19:37:17.688Z,11.00
2019-02-25T19:39:50.434Z,11.10
2019-02-25T19:42:24.292Z,11.10
2019-02-25T19:45:03.890Z,10.90
2019-02-25T19:47:41.051Z,10.90
2019-02-25T19:50:15.316Z,10.80
2019-02-25T19:52:46.807Z,10.80
2019-02-25T19:55:20.250Z,10.80
2019-02-25T19:57:49.849Z,10.80
2019-02-25T20:00:30.260Z,10.70
2019-02-25T20:03:05.612Z,10.70
2019-02-25T20:05:43.298Z,10.60
2019-02-25T20:08:11.458Z,10.70
2019-02-25T20:10:41.839Z,10.60
2019-02-25T20:13:12.284Z,10.60
2019-02-25T20:15:44.487Z,10.50
2019-02-25T20:18:16.154Z,10.50
2019-02-25T20:20:46.998Z,10.50
2019-02-25T20:23:17.650Z,10.60
2019-02-25T20:25:53.568Z,10.60
2019-02-25T20:28:26.838Z,10.70
2019-02-25T20:31:03.357Z,10.60
2019-02-25T20:33:35.120Z,10.50
2019-02-25T20:36:06.359Z,10.30
2019-02-25T20:38:39.687Z,10.20
2019-02-25T20:41:10.824Z,10.10
2019-02-25T20:43:41.261Z,10.20
2019-02-25T20:46:12.302Z,10.10
2019-02-25T20:48:50.736Z,10.00
2019-02-25T20:51:27.665Z,9.80
2019-02-25T20:53:57.871Z,9.60
2019-02-25T20:56:30.549Z,9.50
2019-02-25T20:59:03.360Z,9.30
2019-02-25T21:01:37.133Z,9.20
2019-02-25T21:04:08.813Z,9.30
2019-02-25T21:06:39.704Z,9.30
2019-02-25T21:09:11.154Z,9.40
2019-02-25T21:11:45.988Z,9.30
2019-02-25T21:14:21.180Z,9.50
2019-02-25T21:16:53.785Z,9.50
2019-02-25T21:19:24.746Z,9.50
2019-02-25T21:21:57.171Z,9.40
2019-02-25T21:24:29.072Z,9.30
2019-02-25T21:27:01.404Z,9.30
2019-02-25T21:29:34.847Z,9.20
2019-02-25T21:32:05.487Z,9.30
2019-02-25T21:34:36.245Z,9.30
2019-02-25T21:37:06.565Z,9.20
2019-02-25T21:39:43.635Z,9.00
2019-02-25T21:42:15.399Z,8.80
2019-02-25T21:44:48.658Z,8.80
2019-02-25T21:47:20.399Z,8.80
2019-02-25T21:49:52.451Z,8.90
2019-02-25T21:52:23.768Z,9.00
2019-02-25T21:54:54.154Z,9.10
2019-02-25T21:57:26.869Z,9.10
2019-02-25T21:59:58.369Z,9.00
2019-02-25T22:02:29.627Z,8.90
2019-02-25T22:05:00.737Z,8.70
2019-02-25T22:07:33.079Z,8.60
2019-02-25T22:10:03.209Z,8.60
2019-02-25T22:12:35.301Z,8.70
2019-02-25T22:15:07.230Z,8.60
2019-02-25T22:17:40.166Z,8.70
2019-02-25T22:20:12.250Z,8.60
2019-02-25T22:22:44.005Z,8.40
2019-02-25T22:25:15.798Z,8.30
2019-02-25T22:27:47.267Z,8.30
2019-02-25T22:30:17.709Z,8.30
2019-02-25T22:32:48.111Z,8.20
2019-02-25T22:35:18.492Z,8.20
2019-02-25T22:37:52.128Z,8.10
2019-02-25T22:40:21.345Z,8.10
2019-02-25T22:42:52.320Z,8.20
2019-02-25T22:45:23.874Z,8.20
2019-02-25T22:47:54.816Z,8.30
2019-02-25T22:50:27.529Z,8.40
2019-02-25T22:52:59.029Z,8.40
2019-02-25T22:55:30.255Z,8.50
2019-02-25T22:58:00.891Z,8.40
2019-02-25T23:00:58.207Z,8.20
2019-02-25T23:03:27.665Z,8.10
2019-02-25T23:05:58.722Z,8.10
2019-02-25T23:08:29.105Z,8.10
2019-02-25T23:10:59.400Z,8.20
2019-02-25T23:13:31.995Z,8.30
2019-02-25T23:16:03.259Z,8.40
2019-02-25T23:18:33.595Z,8.30
2019-02-25T23:21:03.964Z,8.30
2019-02-25T23:23:35.628Z,8.30
2019-02-25T23:26:06.432Z,8.20
2019-02-25T23:28:37.110Z,8.20
2019-02-25T23:31:07.473Z,8.20
2019-02-25T23:33:40.499Z,8.00
2019-02-25T23:36:10.951Z,7.90
2019-02-25T23:38:43.856Z,7.70
2019-02-25T23:41:16.576Z,7.50
2019-02-25T23:43:48.715Z,7.40
2019-02-25T23:46:23.006Z,7.40
2019-02-25T23:48:51.325Z,7.50
2019-02-25T23:51:23.489Z,7.50
2019-02-25T23:53:55.909Z,7.60
2019-02-25T23:56:30.046Z,7.70
2019-02-25T23:59:02.094Z,7.70
